createdAt,value
2017-10-25T00:01:59.252Z,100389.51
2017-10-25T00:04:25.221Z,100390.39
2017-10-25T00:06:51.174Z,100386.17
2017-10-25T00:09:17.117Z,100381.88
2017-10-25T00:11:43.072Z,100379.80
2017-10-25T00:14:09.054Z,100379.78
2017-10-25T00:16:35.070Z,100379.83
2017-10-25T00:19:01.049Z,100371.33
2017-10-25T00:21:27.039Z,100370.11
2017-10-25T00:23:53.042Z,100367.97
2017-10-25T00:26:18.999Z,100360.77
2017-10-25T00:28:44.939Z,100366.22
2017-10-25T00:31:10.906Z,100364.98
2017-10-25T00:33:36.867Z,100362.87
2017-10-25T00:36:02.858Z,100366.27
2017-10-25T00:38:28.841Z,100364.11
2017-10-25T00:40:54.796Z,100351.05
2017-10-25T00:43:20.772Z,100351.41
2017-10-25T00:45:46.726Z,100342.11
2017-10-25T00:48:12.722Z,100335.30
2017-10-25T00:50:38.706Z,100346.74
2017-10-25T00:53:04.656Z,100342.08
2017-10-25T00:55:30.628Z,100337.82
2017-10-25T00:57:56.592Z,100335.68
2017-10-25T01:00:22.544Z,100338.21
2017-10-25T01:02:48.518Z,100339.47
2017-10-25T01:05:14.478Z,100338.20
2017-10-25T01:07:40.476Z,100344.57
2017-10-25T01:10:06.456Z,100354.33
2017-10-25T01:12:32.446Z,100349.20
2017-10-25T01:14:58.417Z,100354.72
2017-10-25T01:17:24.383Z,100360.64
2017-10-25T01:19:50.403Z,100359.81
2017-10-25T01:22:16.390Z,100361.44
2017-10-25T01:24:42.324Z,100361.02
2017-10-25T01:27:08.390Z,100354.27
2017-10-25T01:29:34.338Z,100352.17
2017-10-25T01:32:00.294Z,100337.42
2017-10-25T01:34:26.240Z,100342.06
2017-10-25T01:36:52.206Z,100342.89
2017-10-25T01:39:18.167Z,100328.05
2017-10-25T01:41:44.104Z,100329.30
2017-10-25T01:44:10.052Z,100314.91
2017-10-25T01:46:35.980Z,100313.14
2017-10-25T01:49:01.934Z,100312.30
2017-10-25T01:51:27.926Z,100303.39
2017-10-25T01:53:53.865Z,100307.22
2017-10-25T01:56:19.804Z,100312.30
2017-10-25T01:58:45.772Z,100311.86
2017-10-25T02:01:11.701Z,100313.55
2017-10-25T02:03:37.651Z,100311.91
2017-10-25T02:06:03.640Z,100314.41
2017-10-25T02:08:29.603Z,100309.80
2017-10-25T02:10:55.536Z,100313.16
2017-10-25T02:13:21.501Z,100312.77
2017-10-25T02:15:47.498Z,100308.54
2017-10-25T02:18:13.458Z,100313.23
2017-10-25T02:20:39.404Z,100306.06
2017-10-25T02:23:05.373Z,100299.70
2017-10-25T02:25:31.542Z,100300.16
2017-10-25T02:27:57.484Z,100304.80
2017-10-25T02:30:23.424Z,100301.84
2017-10-25T02:32:49.365Z,100311.95
2017-10-25T02:35:15.326Z,100311.98
2017-10-25T02:37:41.280Z,100313.27
2017-10-25T02:40:07.236Z,100311.57
2017-10-25T02:42:33.188Z,100309.06
2017-10-25T02:44:59.154Z,100310.34
2017-10-25T02:47:25.119Z,100306.97
2017-10-25T02:49:51.068Z,100308.23
2017-10-25T02:52:17.015Z,100314.98
2017-10-25T02:54:42.968Z,100290.88
2017-10-25T02:57:08.973Z,100317.94
2017-10-25T02:59:34.953Z,100311.54
2017-10-25T03:02:00.938Z,100307.33
2017-10-25T03:04:26.889Z,100305.60
2017-10-25T03:06:52.828Z,100298.86
2017-10-25T03:09:18.802Z,100303.10
2017-10-25T03:11:44.757Z,100304.77
2017-10-25T03:14:10.738Z,100304.40
2017-10-25T03:16:36.716Z,100298.03
2017-10-25T03:19:02.658Z,100298.05
2017-10-25T03:21:28.604Z,100295.08
2017-10-25T03:23:54.563Z,100284.45
2017-10-25T03:26:20.528Z,100291.69
2017-10-25T03:28:46.498Z,100300.16
2017-10-25T03:31:12.444Z,100303.11
2017-10-25T03:33:38.460Z,100311.14
2017-10-25T03:36:04.393Z,100307.76
2017-10-25T03:38:30.355Z,100306.07
2017-10-25T03:40:56.300Z,100305.24
2017-10-25T03:43:22.278Z,100303.14
2017-10-25T03:45:48.326Z,100307.78
2017-10-25T03:48:14.252Z,100312.06
2017-10-25T03:50:40.228Z,100314.14
2017-10-25T03:53:06.208Z,100315.03
2017-10-25T03:55:32.175Z,100309.13
2017-10-25T03:57:58.136Z,100309.13
2017-10-25T04:00:24.096Z,100301.12
2017-10-25T04:02:50.044Z,100303.25
2017-10-25T04:05:16.044Z,100306.20
2017-10-25T04:07:42.000Z,100307.45
2017-10-25T04:10:07.932Z,100320.11
2017-10-25T04:12:33.920Z,100325.20
2017-10-25T04:14:59.934Z,100312.50
2017-10-25T04:17:25.902Z,100310.36
2017-10-25T04:19:51.843Z,100315.45
2017-10-25T04:22:17.811Z,100306.17
2017-10-25T04:24:43.831Z,100298.13
2017-10-25T04:27:09.794Z,100295.17
2017-10-25T04:29:35.746Z,100297.30
2017-10-25T04:32:01.718Z,100291.84
2017-10-25T04:34:27.664Z,100291.80
2017-10-25T04:36:53.613Z,100290.97
2017-10-25T04:39:19.589Z,100295.63
2017-10-25T04:41:45.534Z,100286.70
2017-10-25T04:44:11.476Z,100296.48
2017-10-25T04:46:37.438Z,100293.47
2017-10-25T04:49:03.405Z,100290.95
2017-10-25T04:51:29.360Z,100285.48
2017-10-25T04:53:55.350Z,100282.94
2017-10-25T04:56:21.300Z,100283.34
2017-10-25T04:58:47.244Z,100288.43
2017-10-25T05:01:13.218Z,100277.03
2017-10-25T05:03:39.193Z,100275.33
2017-10-25T05:06:05.152Z,100271.52
2017-10-25T05:08:31.176Z,100269.81
2017-10-25T05:10:57.124Z,100272.39
2017-10-25T05:13:23.136Z,100274.89
2017-10-25T05:15:49.090Z,100268.14
2017-10-25T05:18:15.081Z,100271.92
2017-10-25T05:20:41.066Z,100262.22
2017-10-25T05:23:07.011Z,100261.36
2017-10-25T05:25:32.976Z,100269.02
2017-10-25T05:27:58.922Z,100262.16
2017-10-25T05:30:24.896Z,100260.87
2017-10-25T05:32:50.855Z,100263.33
2017-10-25T05:35:16.848Z,100255.84
2017-10-25T05:37:42.826Z,100263.85
2017-10-25T05:40:08.758Z,100268.06
2017-10-25T05:42:34.732Z,100267.61
2017-10-25T05:45:00.724Z,100270.59
2017-10-25T05:47:26.675Z,100273.95
2017-10-25T05:49:52.626Z,100264.66
2017-10-25T05:52:18.554Z,100268.38
2017-10-25T05:54:44.493Z,100278.52
2017-10-25T05:57:10.432Z,100284.02
2017-10-25T05:59:36.370Z,100287.84
2017-10-25T06:02:02.303Z,100286.14
2017-10-25T06:04:28.262Z,100295.50
2017-10-25T06:06:54.221Z,100294.69
2017-10-25T06:09:20.172Z,100300.17
2017-10-25T06:11:46.124Z,100299.77
2017-10-25T06:14:12.052Z,100295.08
2017-10-25T06:16:38.026Z,100286.12
2017-10-25T06:19:03.972Z,100299.59
2017-10-25T06:21:29.958Z,100294.56
2017-10-25T06:23:55.900Z,100300.05
2017-10-25T06:26:21.868Z,100300.47
2017-10-25T06:28:47.828Z,100305.06
2017-10-25T06:31:13.787Z,100309.72
2017-10-25T06:33:39.734Z,100304.64
2017-10-25T06:36:05.696Z,100309.28
2017-10-25T06:38:31.644Z,100312.28
2017-10-25T06:40:57.586Z,100313.12
2017-10-25T06:43:23.520Z,100312.67
2017-10-25T06:45:49.450Z,100306.69
2017-10-25T06:48:15.398Z,100297.36
2017-10-25T06:50:41.336Z,100300.38
2017-10-25T06:53:07.288Z,100299.51
2017-10-25T06:55:33.220Z,100296.50
2017-10-25T06:57:59.154Z,100301.59
2017-10-25T07:00:25.098Z,100303.30
2017-10-25T07:02:51.032Z,100305.79
2017-10-25T07:05:16.982Z,100305.37
2017-10-25T07:07:42.939Z,100299.83
2017-10-25T07:10:08.871Z,100297.73
2017-10-25T07:12:34.833Z,100308.34
2017-10-25T07:15:00.768Z,100315.97
2017-10-25T07:17:26.789Z,100321.86
2017-10-25T07:19:52.724Z,100327.37
2017-10-25T07:22:18.672Z,100321.82
2017-10-25T07:24:44.636Z,100326.45
2017-10-25T07:27:10.624Z,100325.63
2017-10-25T07:29:36.885Z,100328.55
2017-10-25T07:32:02.845Z,100330.70
2017-10-25T07:34:28.832Z,100334.56
2017-10-25T07:36:54.780Z,100326.00
2017-10-25T07:39:20.716Z,100319.64
2017-10-25T07:41:46.664Z,100314.16
2017-10-25T07:44:12.607Z,100322.61
2017-10-25T07:46:38.550Z,100324.73
2017-10-25T07:49:04.504Z,100333.57
2017-10-25T07:51:30.448Z,100330.65
2017-10-25T07:53:56.392Z,100334.02
2017-10-25T07:56:22.347Z,100339.13
2017-10-25T07:58:48.288Z,100336.16
2017-10-25T08:01:14.242Z,100333.62
2017-10-25T08:03:40.179Z,100339.91
2017-10-25T08:06:06.152Z,100336.98
2017-10-25T08:08:32.104Z,100328.43
2017-10-25T08:10:58.066Z,100333.52
2017-10-25T08:13:24.063Z,100328.02
2017-10-25T08:15:50.039Z,100324.53
2017-10-25T08:18:15.988Z,100320.34
2017-10-25T08:20:41.988Z,100318.25
2017-10-25T08:23:07.949Z,100315.73
2017-10-25T08:25:33.896Z,100319.53
2017-10-25T08:27:59.838Z,100310.97
2017-10-25T08:30:25.776Z,100310.11
2017-10-25T08:32:51.736Z,100307.94
2017-10-25T08:35:17.696Z,100305.83
2017-10-25T08:37:43.638Z,100304.98
2017-10-25T08:40:09.625Z,100306.29
2017-10-25T08:42:35.579Z,100304.19
2017-10-25T08:45:01.528Z,100308.37
2017-10-25T08:47:27.513Z,100296.95
2017-10-25T08:49:53.469Z,100298.66
2017-10-25T08:52:19.400Z,100294.78
2017-10-25T08:54:45.335Z,100291.83
2017-10-25T08:57:11.283Z,100289.25
2017-10-25T08:59:37.241Z,100291.00
2017-10-25T09:02:03.185Z,100287.09
2017-10-25T09:04:29.137Z,100288.75
2017-10-25T09:06:55.306Z,100278.52
2017-10-25T09:09:21.287Z,100286.51
2017-10-25T09:11:47.253Z,100280.87
2017-10-25T09:14:13.181Z,100279.11
2017-10-25T09:16:39.144Z,100279.16
2017-10-25T09:19:05.104Z,100283.75
2017-10-25T09:21:31.081Z,100276.02
2017-10-25T09:23:57.032Z,100279.77
2017-10-25T09:26:22.997Z,100278.14
2017-10-25T09:28:48.945Z,100276.09
2017-10-25T09:31:14.895Z,100285.00
2017-10-25T09:33:40.857Z,100286.22
2017-10-25T09:36:06.805Z,100280.73
2017-10-25T09:38:32.765Z,100279.80
2017-10-25T09:40:58.718Z,100261.83
2017-10-25T09:43:24.710Z,100265.24
2017-10-25T09:45:50.692Z,100260.66
2017-10-25T09:48:16.661Z,100259.70
2017-10-25T09:50:42.610Z,100269.11
2017-10-25T09:53:08.548Z,100266.55
2017-10-25T09:55:34.525Z,100261.45
2017-10-25T09:58:00.484Z,100260.11
2017-10-25T10:00:26.424Z,100267.70
2017-10-25T10:02:52.397Z,100276.30
2017-10-25T10:05:18.368Z,100274.29
2017-10-25T10:07:44.316Z,100275.94
2017-10-25T10:10:10.309Z,100266.95
2017-10-25T10:12:36.340Z,100273.02
2017-10-25T10:15:02.280Z,100273.39
2017-10-25T10:17:28.248Z,100263.63
2017-10-25T10:19:54.261Z,100259.81
2017-10-25T10:22:20.207Z,100268.61
2017-10-25T10:24:46.218Z,100272.02
2017-10-25T10:27:12.184Z,100277.06
2017-10-25T10:29:38.177Z,100276.12
2017-10-25T10:32:04.156Z,100268.03
2017-10-25T10:34:30.120Z,100257.89
2017-10-25T10:36:56.056Z,100264.70
2017-10-25T10:39:22.146Z,100264.64
2017-10-25T10:41:48.094Z,100264.22
2017-10-25T10:44:14.048Z,100267.60
2017-10-25T10:46:40.004Z,100268.89
2017-10-25T10:49:05.954Z,100270.56
2017-10-25T10:51:31.914Z,100264.54
2017-10-25T10:53:57.861Z,100260.89
2017-10-25T10:56:23.789Z,100255.30
2017-10-25T10:58:49.738Z,100254.72
2017-10-25T11:01:15.717Z,100244.53
2017-10-25T11:03:41.679Z,100239.33
2017-10-25T11:06:07.632Z,100234.67
2017-10-25T11:08:33.820Z,100224.94
2017-10-25T11:10:59.776Z,100221.91
2017-10-25T11:13:25.764Z,100225.34
2017-10-25T11:15:51.752Z,100235.12
2017-10-25T11:18:17.688Z,100243.67
2017-10-25T11:20:43.651Z,100238.56
2017-10-25T11:23:09.640Z,100230.08
2017-10-25T11:25:35.600Z,100222.03
2017-10-25T11:28:01.553Z,100228.34
2017-10-25T11:30:27.495Z,100216.50
2017-10-25T11:32:53.444Z,100221.62
2017-10-25T11:35:19.419Z,100218.67
2017-10-25T11:37:45.389Z,100213.80
2017-10-25T11:40:11.365Z,100209.22
2017-10-25T11:42:37.332Z,100213.11
2017-10-25T11:45:03.289Z,100209.62
2017-10-25T11:47:29.348Z,100211.32
2017-10-25T11:49:55.340Z,100214.17
2017-10-25T11:52:21.352Z,100217.92
2017-10-25T11:54:47.303Z,100217.51
2017-10-25T11:57:13.372Z,100213.82
2017-10-25T11:59:39.315Z,100214.64
2017-10-25T12:02:05.301Z,100218.07
2017-10-25T12:04:31.243Z,100205.56
2017-10-25T12:06:57.199Z,100225.19
2017-10-25T12:09:23.190Z,100231.13
2017-10-25T12:11:49.135Z,100236.67
2017-10-25T12:14:15.073Z,100230.79
2017-10-25T12:16:41.067Z,100227.46
2017-10-25T12:19:07.056Z,100228.29
2017-10-25T12:21:33.039Z,100229.56
2017-10-25T12:23:58.983Z,100234.95
2017-10-25T12:26:24.947Z,100237.16
2017-10-25T12:28:50.875Z,100237.84
2017-10-25T12:31:16.839Z,100233.32
2017-10-25T12:33:42.780Z,100226.56
2017-10-25T12:36:08.723Z,100228.27
2017-10-25T12:38:34.693Z,100221.33
2017-10-25T12:41:00.633Z,100221.78
2017-10-25T12:43:26.569Z,100211.65
2017-10-25T12:45:52.514Z,100221.03
2017-10-25T12:48:18.448Z,100220.13
2017-10-25T12:50:44.400Z,100221.88
2017-10-25T12:53:10.352Z,100220.53
2017-10-25T12:55:36.331Z,100224.35
2017-10-25T12:58:02.272Z,100229.39
2017-10-25T13:00:28.251Z,100228.55
2017-10-25T13:02:54.209Z,100231.98
2017-10-25T13:05:20.165Z,100224.66
2017-10-25T13:07:46.116Z,100217.63
2017-10-25T13:10:12.068Z,100213.97
2017-10-25T13:12:38.028Z,100216.45
2017-10-25T13:15:03.997Z,100212.72
2017-10-25T13:17:29.974Z,100209.84
2017-10-25T13:19:55.941Z,100206.84
2017-10-25T13:22:21.882Z,100200.05
2017-10-25T13:24:47.836Z,100206.42
2017-10-25T13:27:13.795Z,100206.46
2017-10-25T13:29:39.801Z,100204.41
2017-10-25T13:32:05.745Z,100202.26
2017-10-25T13:34:31.743Z,100207.24
2017-10-25T13:36:57.755Z,100206.27
2017-10-25T13:39:23.731Z,100203.80
2017-10-25T13:41:49.762Z,100211.02
2017-10-25T13:44:15.714Z,100208.52
2017-10-25T13:46:41.646Z,100211.97
2017-10-25T13:49:07.601Z,100209.00
2017-10-25T13:51:33.545Z,100207.59
2017-10-25T13:53:59.495Z,100212.20
2017-10-25T13:56:25.464Z,100201.34
2017-10-25T13:58:51.459Z,100203.05
2017-10-25T14:01:17.390Z,100210.22
2017-10-25T14:03:43.316Z,100211.93
2017-10-25T14:06:09.247Z,100212.39
2017-10-25T14:08:35.183Z,100209.13
2017-10-25T14:11:01.178Z,100213.78
2017-10-25T14:13:27.159Z,100220.17
2017-10-25T14:15:53.101Z,100235.03
2017-10-25T14:18:19.063Z,100235.78
2017-10-25T14:20:45.025Z,100237.92
2017-10-25T14:23:10.969Z,100231.58
2017-10-25T14:25:36.931Z,100230.27
2017-10-25T14:28:02.899Z,100235.81
2017-10-25T14:30:28.873Z,100232.95
2017-10-25T14:32:54.822Z,100232.55
2017-10-25T14:35:20.767Z,100234.14
2017-10-25T14:37:46.723Z,100240.95
2017-10-25T14:40:12.695Z,100233.21
2017-10-25T14:42:38.667Z,100231.22
2017-10-25T14:45:04.620Z,100236.97
2017-10-25T14:47:30.573Z,100242.96
2017-10-25T14:49:56.513Z,100243.42
2017-10-25T14:52:22.464Z,100246.40
2017-10-25T14:54:48.419Z,100251.59
2017-10-25T14:57:14.381Z,100255.32
2017-10-25T14:59:40.404Z,100264.02
2017-10-25T15:02:06.356Z,100255.88
2017-10-25T15:04:32.291Z,100256.22
2017-10-25T15:06:58.269Z,100260.63
2017-10-25T15:09:24.214Z,100258.77
2017-10-25T15:11:50.198Z,100263.63
2017-10-25T15:14:16.151Z,100260.61
2017-10-25T15:16:42.102Z,100271.13
2017-10-25T15:19:08.064Z,100275.69
2017-10-25T15:21:34.017Z,100273.28
2017-10-25T15:24:00.012Z,100274.53
2017-10-25T15:26:25.976Z,100277.97
2017-10-25T15:28:52.019Z,100284.39
2017-10-25T15:31:17.971Z,100278.48
2017-10-25T15:33:43.944Z,100269.09
2017-10-25T15:36:09.904Z,100267.98
2017-10-25T15:38:35.908Z,100262.05
2017-10-25T15:41:01.884Z,100272.65
2017-10-25T15:43:27.882Z,100287.95
2017-10-25T15:45:53.846Z,100290.00
2017-10-25T15:48:19.799Z,100294.31
2017-10-25T15:50:45.768Z,100297.88
2017-10-25T15:53:11.969Z,100273.98
2017-10-25T15:55:37.932Z,100274.86
2017-10-25T15:58:03.896Z,100282.54
2017-10-25T16:00:29.848Z,100275.27
2017-10-25T16:02:55.863Z,100273.27
2017-10-25T16:05:21.842Z,100277.03
2017-10-25T16:07:47.824Z,100284.20
2017-10-25T16:10:13.827Z,100286.26
2017-10-25T16:12:39.783Z,100282.09
2017-10-25T16:15:05.735Z,100285.86
2017-10-25T16:17:31.695Z,100286.32
2017-10-25T16:19:57.723Z,100300.41
2017-10-25T16:22:25.534Z,100302.50
2017-10-25T16:24:51.584Z,100311.95
2017-10-25T16:27:17.577Z,100311.48
2017-10-25T16:29:43.518Z,100310.59
2017-10-25T16:32:09.454Z,100299.61
2017-10-25T16:34:35.424Z,100300.48
2017-10-25T16:37:01.392Z,100304.75
2017-10-25T16:39:27.340Z,100291.55
2017-10-25T16:41:53.304Z,100297.46
2017-10-25T16:44:19.251Z,100292.00
2017-10-25T16:46:45.217Z,100297.86
2017-10-25T16:49:11.191Z,100291.94
2017-10-25T16:51:37.145Z,100291.55
2017-10-25T16:54:03.106Z,100294.91
2017-10-25T16:56:29.071Z,100297.03
2017-10-25T16:58:55.030Z,100302.19
2017-10-25T17:01:20.984Z,100311.56
2017-10-25T17:03:47.036Z,100321.68
2017-10-25T17:06:13.002Z,100320.84
2017-10-25T17:08:38.966Z,100329.67
2017-10-25T17:11:04.966Z,100332.69
2017-10-25T17:13:30.915Z,100322.52
2017-10-25T17:15:56.868Z,100327.20
2017-10-25T17:18:22.834Z,100332.74
2017-10-25T17:20:48.812Z,100333.14
2017-10-25T17:23:14.836Z,100334.47
2017-10-25T17:25:40.787Z,100345.09
2017-10-25T17:28:06.756Z,100345.05
2017-10-25T17:30:32.704Z,100345.06
2017-10-25T17:32:58.666Z,100345.52
2017-10-25T17:35:24.631Z,100346.34
2017-10-25T17:37:50.612Z,100345.07
2017-10-25T17:40:16.578Z,100354.42
2017-10-25T17:42:42.522Z,100351.43
2017-10-25T17:45:08.506Z,100350.17
2017-10-25T17:47:34.498Z,100356.56
2017-10-25T17:50:00.600Z,100351.45
2017-10-25T17:52:26.568Z,100353.59
2017-10-25T17:54:52.560Z,100366.34
2017-10-25T17:57:18.576Z,100364.70
2017-10-25T17:59:44.596Z,100366.30
2017-10-25T18:02:10.579Z,100369.73
2017-10-25T18:04:36.556Z,100374.44
2017-10-25T18:07:02.514Z,100377.77
2017-10-25T18:09:28.478Z,100376.08
2017-10-25T18:11:54.420Z,100374.44
2017-10-25T18:14:20.692Z,100368.02
2017-10-25T18:16:46.698Z,100369.31
2017-10-25T18:19:12.704Z,100370.61
2017-10-25T18:21:38.668Z,100370.62
2017-10-25T18:24:04.634Z,100377.83
2017-10-25T18:26:30.647Z,100379.09
2017-10-25T18:28:56.580Z,100384.08
2017-10-25T18:31:22.512Z,100382.91
2017-10-25T18:33:48.502Z,100394.39
2017-10-25T18:36:14.453Z,100393.54
2017-10-25T18:38:40.476Z,100393.05
2017-10-25T18:41:06.486Z,100397.31
2017-10-25T18:43:32.538Z,100391.48
2017-10-25T18:48:34.451Z,100409.75
2017-10-25T18:51:00.460Z,100405.80
2017-10-25T18:53:26.445Z,100405.39
2017-10-25T18:55:52.528Z,100407.56
2017-10-25T18:58:18.554Z,100420.72
2017-10-25T19:00:44.659Z,100414.35
2017-10-25T19:03:10.666Z,100423.91
2017-10-25T19:05:36.644Z,100434.92
2017-10-25T19:08:02.611Z,100436.19
2017-10-25T19:10:28.570Z,100441.70
2017-10-25T19:12:54.623Z,100435.68
2017-10-25T19:15:20.608Z,100441.31
2017-10-25T19:17:46.606Z,100446.41
2017-10-25T19:20:12.574Z,100441.78
2017-10-25T19:22:38.633Z,100443.02
2017-10-25T19:25:04.627Z,100443.08
2017-10-25T19:27:30.646Z,100443.47
2017-10-25T19:29:56.621Z,100443.09
2017-10-25T19:32:22.741Z,100449.44
2017-10-25T19:34:50.727Z,100455.36
2017-10-25T19:37:16.763Z,100451.56
2017-10-25T19:39:42.709Z,100460.44
2017-10-25T19:42:08.685Z,100465.55
2017-10-25T19:44:34.678Z,100466.01
2017-10-25T19:47:00.632Z,100468.55
2017-10-25T19:49:26.636Z,100470.25
2017-10-25T19:51:52.572Z,100462.16
2017-10-25T19:54:18.530Z,100467.66
2017-10-25T19:56:44.488Z,100468.55
2017-10-25T19:59:10.618Z,100473.70
2017-10-25T20:01:36.573Z,100482.16
2017-10-25T20:04:02.563Z,100489.34
2017-10-25T20:06:28.553Z,100488.05
2017-10-25T20:08:54.512Z,100482.55
2017-10-25T20:11:20.515Z,100472.42
2017-10-25T20:13:46.526Z,100479.64
2017-10-25T20:16:12.496Z,100474.48
2017-10-25T20:18:38.433Z,100477.89
2017-10-25T20:21:04.380Z,100485.53
2017-10-25T20:23:30.372Z,100483.47
2017-10-25T20:25:56.363Z,100477.06
2017-10-25T20:28:22.354Z,100485.14
2017-10-25T20:30:48.324Z,100475.80
2017-10-25T20:33:14.500Z,100477.06
2017-10-25T20:35:40.467Z,100485.95
2017-10-25T20:38:06.459Z,100483.85
2017-10-25T20:40:32.407Z,100487.24
2017-10-25T20:42:58.409Z,100487.20
2017-10-25T20:45:24.363Z,100492.31
2017-10-25T20:47:50.300Z,100499.13
2017-10-25T20:50:16.318Z,100507.17
2017-10-25T20:52:42.284Z,100516.49
2017-10-25T20:55:08.262Z,100514.80
2017-10-25T20:57:34.230Z,100514.36
2017-10-25T21:00:00.192Z,100515.69
2017-10-25T21:02:26.144Z,100513.10
2017-10-25T21:04:52.123Z,100516.55
2017-10-25T21:07:18.083Z,100526.69
2017-10-25T21:09:44.058Z,100516.09
2017-10-25T21:12:10.000Z,100518.19
2017-10-25T21:14:35.969Z,100522.86
2017-10-25T21:17:01.902Z,100525.41
2017-10-25T21:19:27.864Z,100532.63
2017-10-25T21:21:53.847Z,100530.48
2017-10-25T21:24:20.593Z,100533.04
2017-10-25T21:26:46.855Z,100537.72
2017-10-25T21:29:12.790Z,100538.14
2017-10-25T21:31:38.767Z,100538.98
2017-10-25T21:34:04.751Z,100550.45
2017-10-25T21:36:30.712Z,100550.88
2017-10-25T21:38:56.711Z,100549.19
2017-10-25T21:41:22.656Z,100549.19
2017-10-25T21:43:48.614Z,100548.36
2017-10-25T21:46:14.610Z,100550.92
2017-10-25T21:48:40.555Z,100553.50
2017-10-25T21:51:06.554Z,100549.23
2017-10-25T21:53:32.546Z,100552.20
2017-10-25T21:55:58.622Z,100556.06
2017-10-25T21:58:24.548Z,100564.55
2017-10-25T22:00:50.504Z,100561.95
2017-10-25T22:03:16.469Z,100563.67
2017-10-25T22:05:42.406Z,100564.09
2017-10-25T22:08:08.369Z,100570.84
2017-10-25T22:10:34.310Z,100565.38
2017-10-25T22:13:00.286Z,100570.09
2017-10-25T22:15:26.242Z,100581.92
2017-10-25T22:17:52.226Z,100575.14
2017-10-25T22:20:18.236Z,100569.63
2017-10-25T22:22:44.196Z,100566.66
2017-10-25T22:25:10.164Z,100574.27
2017-10-25T22:27:36.116Z,100590.84
2017-10-25T22:30:02.072Z,100590.88
2017-10-25T22:32:28.016Z,100583.25
2017-10-25T22:34:54.024Z,100584.88
2017-10-25T22:37:19.984Z,100583.21
2017-10-25T22:39:45.927Z,100582.77
2017-10-25T22:42:11.868Z,100572.14
2017-10-25T22:44:37.873Z,100577.28
2017-10-25T22:47:03.828Z,100590.89
2017-10-25T22:49:29.808Z,100595.54
2017-10-25T22:51:55.818Z,100588.38
2017-10-25T22:54:21.822Z,100592.14
2017-10-25T22:56:47.781Z,100585.38
2017-10-25T22:59:13.726Z,100576.45
2017-10-25T23:01:39.669Z,100569.66
2017-10-25T23:04:05.600Z,100581.09
2017-10-25T23:06:31.620Z,100586.66
2017-10-25T23:08:57.592Z,100585.36
2017-10-25T23:11:23.561Z,100587.94
2017-10-25T23:13:49.500Z,100577.30
2017-10-25T23:16:15.468Z,100578.14
2017-10-25T23:18:41.430Z,100578.19
2017-10-25T23:21:07.384Z,100573.96
2017-10-25T23:23:33.325Z,100582.87
2017-10-25T23:25:59.272Z,100582.88
2017-10-25T23:28:25.216Z,100580.35
2017-10-25T23:30:51.199Z,100580.75
2017-10-25T23:33:17.369Z,100578.22
2017-10-25T23:35:43.304Z,100578.67
2017-10-25T23:38:09.270Z,100589.72
2017-10-25T23:40:35.248Z,100585.50
2017-10-25T23:43:01.205Z,100583.38
2017-10-25T23:45:27.154Z,100585.94
2017-10-25T23:47:53.091Z,100587.19
2017-10-25T23:50:19.066Z,100585.50
2017-10-25T23:52:45.040Z,100591.83
2017-10-25T23:55:10.972Z,100598.20
2017-10-25T23:57:36.934Z,100596.50
